createdAt,value
2023-04-04T00:03:30.762Z,0.00
2023-04-04T00:08:30.568Z,0.00
2023-04-04T00:13:30.505Z,0.00
2023-04-04T00:18:30.438Z,0.00
2023-04-04T00:23:30.365Z,0.00
2023-04-04T00:28:30.304Z,0.00
2023-04-04T00:33:30.278Z,0.00
2023-04-04T00:38:30.199Z,0.00
2023-04-04T00:43:30.123Z,0.00
2023-04-04T00:48:30.052Z,0.00
2023-04-04T00:53:29.982Z,0.00
2023-04-04T00:58:29.930Z,0.00
2023-04-04T01:03:29.854Z,0.00
2023-04-04T01:08:29.788Z,0.00
2023-04-04T01:13:29.728Z,0.00
2023-04-04T01:18:29.658Z,0.00
2023-04-04T01:23:29.596Z,0.00
2023-04-04T01:28:29.531Z,0.00
2023-04-04T01:33:29.457Z,0.00
2023-04-04T01:38:29.396Z,0.00
2023-04-04T01:43:29.323Z,0.00
2023-04-04T01:48:29.275Z,0.00
2023-04-04T01:53:29.208Z,0.00
2023-04-04T01:58:29.137Z,0.00
2023-04-04T02:03:29.073Z,0.00
2023-04-04T02:08:29.009Z,0.00
2023-04-04T02:13:28.957Z,0.00
2023-04-04T02:18:28.868Z,0.00
2023-04-04T02:23:28.813Z,0.00
2023-04-04T02:28:28.763Z,0.00
2023-04-04T02:33:28.676Z,0.00
2023-04-04T02:38:28.670Z,0.00
2023-04-04T02:43:28.547Z,0.00
2023-04-04T02:48:28.475Z,0.00
2023-04-04T02:53:28.438Z,0.00
2023-04-04T02:58:28.343Z,0.00
2023-04-04T03:03:28.616Z,0.00
2023-04-04T03:08:28.223Z,0.00
2023-04-04T03:13:28.174Z,0.00
2023-04-04T03:18:28.090Z,0.00
2023-04-04T03:23:28.039Z,0.00
2023-04-04T03:28:27.957Z,0.00
2023-04-04T03:33:27.898Z,0.00
2023-04-04T03:38:27.847Z,0.00
2023-04-04T03:43:27.790Z,0.00
2023-04-04T03:48:27.716Z,0.00
2023-04-04T03:53:27.645Z,0.00
2023-04-04T03:58:27.597Z,0.00
2023-04-04T04:03:27.665Z,0.00
2023-04-04T04:08:27.466Z,4.00
2023-04-04T04:13:27.385Z,4.00
2023-04-04T04:18:27.298Z,8.00
2023-04-04T04:23:27.238Z,24.00
2023-04-04T04:28:33.289Z,44.00
2023-04-04T04:33:28.109Z,76.00
2023-04-04T04:38:27.037Z,124.00
2023-04-04T04:43:26.977Z,200.00
2023-04-04T04:48:26.916Z,288.00
2023-04-04T04:53:26.839Z,420.00
2023-04-04T04:58:27.626Z,588.00
2023-04-04T05:03:26.727Z,832.00
2023-04-04T05:08:26.637Z,1348.00
2023-04-04T05:13:26.586Z,1948.00
2023-04-04T05:18:26.508Z,2720.00
2023-04-04T05:23:26.459Z,3712.00
2023-04-04T05:28:26.376Z,5124.00
2023-04-04T05:33:26.319Z,6516.00
2023-04-04T05:38:26.262Z,9972.00
2023-04-04T05:43:26.207Z,17184.00
2023-04-04T05:48:26.126Z,18208.00
2023-04-04T05:53:26.057Z,30944.00
2023-04-04T05:58:25.986Z,49728.00
2023-04-04T06:03:25.999Z,50080.00
2023-04-04T06:08:25.848Z,62848.00
2023-04-04T06:13:25.785Z,75328.00
2023-04-04T06:18:25.716Z,76480.00
2023-04-04T06:23:25.655Z,75808.00
2023-04-04T06:28:25.621Z,79072.00
2023-04-04T06:33:25.549Z,80224.00
2023-04-04T06:38:25.452Z,80992.00
2023-04-04T06:43:25.384Z,84608.00
2023-04-04T06:48:25.320Z,83872.00
2023-04-04T06:53:25.256Z,81600.00
2023-04-04T06:58:25.221Z,82912.00
2023-04-04T07:03:25.165Z,84096.00
2023-04-04T07:08:25.059Z,83840.00
2023-04-04T07:13:24.992Z,86496.00
2023-04-04T07:18:24.924Z,92352.00
2023-04-04T07:23:24.870Z,90656.00
2023-04-04T07:28:24.813Z,88384.00
2023-04-04T07:33:24.728Z,92640.00
2023-04-04T07:38:24.663Z,88736.00
2023-04-04T07:43:24.589Z,88288.00
2023-04-04T07:48:24.519Z,87136.00
2023-04-04T07:53:24.456Z,90656.00
2023-04-04T07:58:24.381Z,80480.00
2023-04-04T08:03:24.523Z,80128.00
2023-04-04T08:08:24.261Z,80320.00
2023-04-04T08:13:24.182Z,69568.00
2023-04-04T08:18:24.108Z,80960.00
2023-04-04T08:23:24.075Z,74976.00
2023-04-04T08:28:24.014Z,79584.00
2023-04-04T08:33:29.032Z,71328.00
2023-04-04T08:38:24.852Z,24672.00
2023-04-04T08:43:23.778Z,32480.00
2023-04-04T08:48:23.713Z,27808.00
2023-04-04T08:53:23.658Z,23008.00
2023-04-04T08:58:23.587Z,13300.00
2023-04-04T09:03:23.611Z,11904.00
2023-04-04T09:08:23.457Z,11584.00
2023-04-04T09:13:23.405Z,9852.00
2023-04-04T09:18:23.329Z,10184.00
2023-04-04T09:23:23.261Z,10060.00
2023-04-04T09:28:23.183Z,10136.00
2023-04-04T09:33:23.119Z,9644.00
2023-04-04T09:38:23.041Z,9672.00
2023-04-04T09:43:22.987Z,10884.00
2023-04-04T09:48:22.929Z,8936.00
2023-04-04T09:53:22.870Z,9084.00
2023-04-04T09:58:22.777Z,8916.00
2023-04-04T10:03:22.735Z,8628.00
2023-04-04T10:08:22.736Z,8620.00
2023-04-04T10:13:22.599Z,9160.00
2023-04-04T10:18:22.510Z,9660.00
2023-04-04T10:23:22.476Z,9308.00
2023-04-04T10:28:22.368Z,8316.00
2023-04-04T10:33:22.343Z,8168.00
2023-04-04T10:38:22.258Z,7868.00
2023-04-04T10:43:22.184Z,7624.00
2023-04-04T10:48:22.120Z,7504.00
2023-04-04T10:53:23.516Z,8096.00
2023-04-04T10:58:21.984Z,8380.00
2023-04-04T11:03:21.929Z,8552.00
2023-04-04T11:08:21.846Z,6288.00
2023-04-04T11:13:21.789Z,7332.00
2023-04-04T11:23:22.660Z,8324.00
2023-04-04T11:28:21.589Z,7860.00
2023-04-04T11:33:21.616Z,6388.00
2023-04-04T11:38:21.448Z,7576.00
2023-04-04T11:43:21.389Z,8436.00
2023-04-04T11:48:21.326Z,8428.00
2023-04-04T11:53:21.267Z,8628.00
2023-04-04T11:58:21.214Z,7952.00
2023-04-04T12:03:21.221Z,8460.00
2023-04-04T12:08:21.059Z,7944.00
2023-04-04T12:13:20.989Z,6924.00
2023-04-04T12:18:20.936Z,6960.00
2023-04-04T12:23:20.902Z,4908.00
2023-04-04T12:28:20.790Z,6268.00
2023-04-04T12:33:20.731Z,7300.00
2023-04-04T12:38:20.659Z,7316.00
2023-04-04T12:43:20.602Z,5856.00
2023-04-04T12:48:20.518Z,6596.00
2023-04-04T12:53:28.996Z,9272.00
2023-04-04T12:58:21.387Z,9868.00
2023-04-04T13:03:20.336Z,8740.00
2023-04-04T13:08:20.347Z,9560.00
2023-04-04T13:13:20.188Z,5928.00
2023-04-04T13:18:20.127Z,4852.00
2023-04-04T13:23:20.086Z,6516.00
2023-04-04T13:28:20.285Z,6984.00
2023-04-04T13:33:20.001Z,7072.00
2023-04-04T13:38:19.865Z,6696.00
2023-04-04T13:43:19.791Z,5700.00
2023-04-04T13:48:19.728Z,6068.00
2023-04-04T13:53:19.681Z,8024.00
2023-04-04T13:58:19.598Z,5568.00
2023-04-04T14:03:19.671Z,4804.00
2023-04-04T14:08:19.453Z,6440.00
2023-04-04T14:13:19.394Z,6296.00
2023-04-04T14:18:19.319Z,7028.00
2023-04-04T14:23:19.252Z,4868.00
2023-04-04T14:28:19.220Z,4276.00
2023-04-04T14:33:19.128Z,5200.00
2023-04-04T14:38:19.066Z,6188.00
2023-04-04T14:43:18.991Z,6580.00
2023-04-04T14:48:18.918Z,6172.00
2023-04-04T14:53:18.856Z,5380.00
2023-04-04T14:58:18.789Z,4956.00
2023-04-04T15:03:18.725Z,5156.00
2023-04-04T15:08:18.655Z,4324.00
2023-04-04T15:13:18.589Z,5128.00
2023-04-04T15:18:18.525Z,4900.00
2023-04-04T15:23:18.508Z,4796.00
2023-04-04T15:28:18.392Z,4932.00
2023-04-04T15:33:18.375Z,4956.00
2023-04-04T15:38:18.277Z,4600.00
2023-04-04T15:43:18.188Z,4324.00
2023-04-04T15:48:18.117Z,3428.00
2023-04-04T15:53:18.056Z,4044.00
2023-04-04T15:58:17.985Z,3696.00
2023-04-04T16:03:17.995Z,3368.00
2023-04-04T16:08:17.849Z,3576.00
2023-04-04T16:13:17.784Z,3544.00
2023-04-04T16:18:17.721Z,3552.00
2023-04-04T16:23:17.669Z,3592.00
2023-04-04T16:28:17.587Z,3276.00
2023-04-04T16:33:17.536Z,2952.00
2023-04-04T16:38:17.452Z,2712.00
2023-04-04T16:43:17.403Z,2504.00
2023-04-04T16:48:17.379Z,2300.00
2023-04-04T16:53:17.250Z,1992.00
2023-04-04T16:58:17.192Z,1712.00
2023-04-04T17:03:17.131Z,1524.00
2023-04-04T17:08:17.053Z,1344.00
2023-04-04T17:13:16.988Z,1172.00
2023-04-04T17:18:16.922Z,976.00
2023-04-04T17:23:16.850Z,780.00
2023-04-04T17:28:16.780Z,580.00
2023-04-04T17:33:16.739Z,396.00
2023-04-04T17:38:16.650Z,244.00
2023-04-04T17:43:16.590Z,136.00
2023-04-04T17:48:16.529Z,68.00
2023-04-04T17:53:16.462Z,28.00
2023-04-04T17:58:16.390Z,12.00
2023-04-04T18:03:16.420Z,4.00
2023-04-04T18:08:16.320Z,0.00
2023-04-04T18:13:16.207Z,0.00
2023-04-04T18:18:16.147Z,0.00
2023-04-04T18:23:16.079Z,0.00
2023-04-04T18:28:16.006Z,0.00
2023-04-04T18:33:15.953Z,0.00
2023-04-04T18:38:15.872Z,0.00
2023-04-04T18:43:15.811Z,0.00
2023-04-04T18:48:15.756Z,0.00
2023-04-04T18:53:15.688Z,0.00
2023-04-04T18:58:15.615Z,0.00
2023-04-04T19:03:15.653Z,0.00
2023-04-04T19:08:15.486Z,0.00
2023-04-04T19:13:15.458Z,0.00
2023-04-04T19:18:15.359Z,0.00
2023-04-04T19:23:15.306Z,0.00
2023-04-04T19:28:15.242Z,0.00
2023-04-04T19:33:15.193Z,0.00
2023-04-04T19:38:15.089Z,0.00
2023-04-04T19:43:15.040Z,0.00
2023-04-04T19:48:14.963Z,0.00
2023-04-04T19:53:14.939Z,0.00
2023-04-04T19:58:14.820Z,0.00
2023-04-04T20:03:14.819Z,0.00
2023-04-04T20:08:14.682Z,0.00
2023-04-04T20:13:14.641Z,0.00
2023-04-04T20:18:14.549Z,0.00
2023-04-04T20:23:14.489Z,0.00
2023-04-04T20:28:14.420Z,0.00
2023-04-04T20:33:14.377Z,0.00
2023-04-04T20:38:14.291Z,0.00
2023-04-04T20:43:14.235Z,0.00
2023-04-04T20:48:14.263Z,0.00
2023-04-04T20:53:14.117Z,0.00
2023-04-04T20:58:14.032Z,0.00
2023-04-04T21:03:13.963Z,0.00
2023-04-04T21:08:13.916Z,0.00
2023-04-04T21:13:13.847Z,0.00
2023-04-04T21:18:13.769Z,0.00
2023-04-04T21:23:13.702Z,0.00
2023-04-04T21:28:13.632Z,0.00
2023-04-04T21:33:13.597Z,0.00
2023-04-04T21:38:13.505Z,0.00
2023-04-04T21:43:13.440Z,0.00
2023-04-04T21:48:13.387Z,0.00
2023-04-04T21:53:13.360Z,0.00
2023-04-04T21:58:13.253Z,0.00
2023-04-04T22:03:13.200Z,0.00
2023-04-04T22:08:13.135Z,0.00
2023-04-04T22:13:13.056Z,0.00
2023-04-04T22:18:13.010Z,0.00
2023-04-04T22:23:12.926Z,0.00
2023-04-04T22:28:12.840Z,0.00
2023-04-04T22:33:12.786Z,0.00
2023-04-04T22:38:12.710Z,0.00
2023-04-04T22:43:12.652Z,0.00
2023-04-04T22:48:12.582Z,0.00
2023-04-04T22:53:12.520Z,0.00
2023-04-04T22:58:12.452Z,0.00
2023-04-04T23:03:12.386Z,0.00
2023-04-04T23:08:12.327Z,0.00
2023-04-04T23:13:12.258Z,0.00
2023-04-04T23:18:12.195Z,0.00
2023-04-04T23:23:12.127Z,0.00
2023-04-04T23:28:12.056Z,0.00
2023-04-04T23:33:12.040Z,0.00
2023-04-04T23:38:11.920Z,0.00
2023-04-04T23:43:11.850Z,0.00
2023-04-04T23:48:11.788Z,0.00
2023-04-04T23:53:11.735Z,0.00
2023-04-04T23:58:11.679Z,0.00
